Airfield :
LOGIN :

Register | Disclaimer

   EN    FR    IT 

 










Legend :    VFR   Marginal VFR   IFR   Intensive IFR   Very Intensive IFR
Visi :
Ceiling :
>= 8 km
>= 3000ft
5 to 8 km
1000 to 3000 ft
1500m to 5 km
500 to 1000 ft
800 to 1500m
200 to 500 ft
< 800m
< 200 ft
Symbols :   Thunderstorms  Fog  Heavy snow  Heavy precipitations  Wind > 20 kt
SIGMETs :     Misc.  Thunderstorms  Icing  Turbulence  Mountain Waves  Volcanic Ashes







- Airport Elevation : 257 ft
- IATA code : MAN
- Download approach charts


EGCC - Manchester

CURRENT METAR :
  • 161220Z 21005KT 150V250 9999 -SHRA FEW019CB 16/11 Q1012 TEMPO 2000 TSRA BKN014CB

EXPIRED METARs :
  • 161150Z AUTO 19008KT 130V240 9999 SCT024 BKN032 16/10 Q1012 NOSIG
  • 161120Z AUTO 20006KT 170V230 9999 BKN022 16/11 Q1012 TEMPO SHRA
  • 161050Z AUTO 19007KT 140V230 9999 BKN018 15/11 Q1013 TEMPO SHRA
  • 161020Z AUTO 19006KT 110V230 9999 BKN018 BKN023 14/10 Q1013 NOSIG
  • 160950Z AUTO 18009KT 130V200 9999 BKN017 14/10 Q1013 NOSIG

TAF AMD TAF EGCC
Valid from the 16 at 12:00 until the 17 at 18:00 UTC


161222Z 1612/1718 19008KT 9999 SCT040
TEMPO 1612/1624 7000 SHRA
PROB40
TEMPO 1612/1615 2000 TSRA BKN014CB
PROB30
TEMPO 1612/1624 23015G25KT
PROB30
TEMPO 1615/1622 4000 +SHRA
TEMPO 1618/1715 BKN010
TEMPO 1700/1703 18018G28KT
PROB30
TEMPO 1700/1715 6000 RA
ATIS : +44 161 499 2324
No reported NOTAMs for that airfield.



MET'MAP, your aeronautical weather chart ! - Copyright ORBIFLY December 2007 - Disclaimer

ORBIFLY MET'MAP TEAM :

Programming & Development : Alexandra Zaïnal
Concept & Development : Baudouin d'Aumeries
Co-Development & Prog : Marc-Olivier Méhu
Technical & hardware support : Manuel Goepfert

Contact : metmap@orbifly.com




SOURCES & CREDITS :

   NOAA